Time;durP1;ratioP1;P1;durP2;ratioP2;P2;SDS_P1;SDS_P2;PMS_P1;PMS_P2;Temp;Humidity;BMP_temperature;BMP_pressure;BME280_temperature;BME280_humidity;BME280_pressure;Samples;Min_cycle;Max_cycle;Signal;HPM_P1;HPM_P2
2021/08/19 00:02:22;;;;;;;11.97;7.17;;;;;;;14.39;100.00;99067.70;1763074;79;20908;-68
2021/08/19 00:04:50;;;;;;;10.60;6.95;;;;;;;14.39;100.00;99074.45;1763263;79;20884;-67
2021/08/19 00:07:19;;;;;;;10.70;6.15;;;;;;;14.39;100.00;99078.50;1763303;79;21392;-68
2021/08/19 00:09:45;;;;;;;9.28;5.95;;;;;;;14.38;100.00;99081.75;1763056;80;20838;-67
2021/08/19 00:12:13;;;;;;;8.55;6.05;;;;;;;14.36;100.00;99076.63;1763517;79;20858;-67
2021/08/19 00:14:41;;;;;;;10.10;6.07;;;;;;;14.36;100.00;99076.63;1763588;79;20968;-68
2021/08/19 00:17:08;;;;;;;7.83;5.55;;;;;;;14.34;100.00;99080.72;1763660;79;20873;-68
2021/08/19 00:19:36;;;;;;;10.65;6.10;;;;;;;14.32;100.00;99084.25;1763127;79;20842;-68
2021/08/19 00:22:05;;;;;;;15.60;6.58;;;;;;;14.33;100.00;99091.23;1763323;79;20837;-68
2021/08/19 00:24:33;;;;;;;11.88;6.45;;;;;;;14.33;100.00;99092.59;1763250;80;20849;-68
2021/08/19 00:27:01;;;;;;;10.43;6.33;;;;;;;14.32;100.00;99093.70;1763218;79;20904;-68
2021/08/19 00:29:28;;;;;;;17.25;6.55;;;;;;;14.30;100.00;99085.08;1763522;80;21313;-67
2021/08/19 00:31:55;;;;;;;10.43;6.65;;;;;;;14.28;100.00;99096.19;1763466;79;21131;-68
2021/08/19 00:34:23;;;;;;;12.73;7.37;;;;;;;14.28;100.00;99098.06;1763222;79;20861;-68
2021/08/19 00:36:50;;;;;;;14.47;6.53;;;;;;;14.25;100.00;99099.99;1789138;78;20931;-68
2021/08/19 00:39:18;;;;;;;12.65;7.20;;;;;;;14.23;100.00;99096.22;1793276;78;20912;-68
2021/08/19 00:41:45;;;;;;;10.82;7.28;;;;;;;14.22;100.00;99101.92;1793494;78;26364;-68
2021/08/19 00:44:11;;;;;;;14.83;8.05;;;;;;;14.21;100.00;99111.09;1793564;80;21117;-67
2021/08/19 00:46:38;;;;;;;13.58;7.65;;;;;;;14.18;100.00;99104.38;1793555;78;20841;-68
2021/08/19 00:49:08;;;;;;;10.90;6.65;;;;;;;14.17;100.00;99110.89;1793636;78;20934;-68
2021/08/19 00:51:40;;;;;;;11.83;7.45;;;;;;;14.14;100.00;99106.87;1793538;78;21312;-67
2021/08/19 00:54:07;;;;;;;13.10;7.22;;;;;;;14.13;100.00;99108.50;1793461;78;21322;-67
2021/08/19 00:56:36;;;;;;;13.38;7.53;;;;;;;14.11;100.00;99113.37;1763535;78;21040;-68
2021/08/19 00:59:07;;;;;;;12.10;7.00;;;;;;;14.07;100.00;99117.20;1793584;78;20963;-67
2021/08/19 01:01:35;;;;;;;10.70;6.30;;;;;;;14.04;100.00;99115.09;1793479;78;21315;-67
2021/08/19 01:04:05;;;;;;;9.75;6.75;;;;;;;14.01;100.00;99116.19;1793298;78;20872;-68
2021/08/19 01:06:34;;;;;;;10.63;6.17;;;;;;;13.97;100.00;99119.22;1793978;78;20900;-67
2021/08/19 01:09:05;;;;;;;15.35;6.75;;;;;;;13.94;100.00;99124.09;1793621;79;20931;-67
2021/08/19 01:11:35;;;;;;;9.30;6.97;;;;;;;13.92;100.00;99124.92;1793291;78;20982;-67
2021/08/19 01:14:03;;;;;;;10.95;7.03;;;;;;;13.91;100.00;99125.20;1793225;78;21362;-67
2021/08/19 01:16:33;;;;;;;13.35;6.80;;;;;;;13.87;100.00;99116.88;1793338;78;20939;-67
2021/08/19 01:19:01;;;;;;;11.15;6.87;;;;;;;13.83;100.00;99112.34;1793525;78;20947;-67
2021/08/19 01:21:29;;;;;;;12.43;7.12;;;;;;;13.82;100.00;99105.35;1793680;78;25237;-68
2021/08/19 01:23:58;;;;;;;8.78;6.87;;;;;;;13.80;100.00;99111.57;1793516;78;20883;-68
2021/08/19 01:26:26;;;;;;;10.20;7.40;;;;;;;13.75;100.00;99115.13;1793736;80;20919;-67
2021/08/19 01:28:55;;;;;;;11.75;7.50;;;;;;;13.75;100.00;99117.02;1763144;80;20890;-67
2021/08/19 01:31:25;;;;;;;12.37;7.08;;;;;;;13.71;100.00;99120.27;1762972;80;20903;-68
2021/08/19 01:33:52;;;;;;;10.72;7.67;;;;;;;13.68;100.00;99110.05;1793403;78;21097;-68
2021/08/19 01:36:19;;;;;;;12.28;7.10;;;;;;;13.66;100.00;99106.03;1790740;78;21456;-68
2021/08/19 01:38:49;;;;;;;10.08;5.95;;;;;;;13.68;100.00;99101.16;1788452;79;20868;-67
2021/08/19 01:41:16;;;;;;;8.45;7.03;;;;;;;13.67;100.00;99097.67;1788012;79;20900;-67
2021/08/19 01:43:46;;;;;;;;;;;;;;;13.70;100.00;99101.14;1791279;79;21208;-67
2021/08/19 01:46:15;;;;;;;10.30;6.33;;;;;;;13.71;100.00;99096.55;1788414;79;20462;-67
2021/08/19 01:48:42;;;;;;;11.93;6.87;;;;;;;13.70;100.00;99096.30;1788441;79;21406;-67
2021/08/19 01:51:10;;;;;;;10.68;7.12;;;;;;;13.70;100.00;99098.99;1788519;78;21065;-67
2021/08/19 01:53:38;;;;;;;10.70;7.22;;;;;;;13.67;100.00;99100.89;1757884;80;20881;-67
2021/08/19 01:56:05;;;;;;;9.63;7.10;;;;;;;13.66;100.00;99106.83;1788452;79;20891;-68
2021/08/19 01:58:33;;;;;;;;;;;;;;;13.65;100.00;99108.48;1790972;79;21386;-68
2021/08/19 02:01:02;;;;;;;11.38;6.95;;;;;;;13.66;100.00;99107.38;1788269;79;25047;-67
2021/08/19 02:03:28;;;;;;;10.38;7.30;;;;;;;13.63;100.00;99107.96;1788473;79;21291;-67
2021/08/19 02:05:56;;;;;;;19.90;7.08;;;;;;;13.63;100.00;99107.41;1788508;79;20900;-67
2021/08/19 02:08:25;;;;;;;;;;;;;;;13.65;100.00;99111.19;1791003;79;21319;-68
2021/08/19 02:10:53;;;;;;;11.40;6.83;;;;;;;13.63;100.00;99107.41;1788568;79;21852;-67
2021/08/19 02:13:21;;;;;;;7.83;6.42;;;;;;;13.60;100.00;99100.45;1757618;80;21005;-68
2021/08/19 02:15:47;;;;;;;10.63;6.70;;;;;;;13.60;100.00;99089.66;1732957;79;20849;-67
2021/08/19 02:18:15;;;;;;;9.53;7.10;;;;;;;13.56;100.00;99088.61;1788362;78;21268;-68
2021/08/19 02:20:42;;;;;;;11.20;6.78;;;;;;;13.53;100.00;99090.54;1788448;79;20899;-68
2021/08/19 02:23:10;;;;;;;10.10;7.03;;;;;;;13.48;100.00;99089.48;1788451;79;21106;-68
2021/08/19 02:25:37;;;;;;;15.93;7.53;;;;;;;13.44;100.00;99087.64;1757899;80;20958;-68
2021/08/19 02:28:04;;;;;;;11.03;6.80;;;;;;;13.36;100.00;99093.10;1756226;80;20816;-68
2021/08/19 02:30:31;;;;;;;12.90;7.95;;;;;;;13.24;100.00;99092.64;1757673;78;20906;-67
2021/08/19 02:32:58;;;;;;;14.13;7.58;;;;;;;13.16;100.00;99098.09;1733168;80;20880;-67
2021/08/19 02:35:26;;;;;;;11.12;6.97;;;;;;;13.11;100.00;99094.64;1787859;79;21000;-66
2021/08/19 02:37:54;;;;;;;17.10;8.03;;;;;;;13.05;100.00;99094.66;1763514;79;21427;-67
2021/08/19 02:40:23;;;;;;;14.90;7.92;;;;;;;13.02;100.00;99099.81;1763164;79;21469;-67
2021/08/19 02:42:50;;;;;;;13.43;8.08;;;;;;;12.98;100.00;99099.55;1763552;79;21427;-68
2021/08/19 02:45:17;;;;;;;13.20;8.23;;;;;;;12.97;100.00;99095.81;1763492;80;20936;-68
2021/08/19 02:47:44;;;;;;;13.30;9.25;;;;;;;12.88;100.00;99095.59;1763185;80;21136;-66
2021/08/19 02:50:11;;;;;;;16.12;8.25;;;;;;;12.83;100.00;99103.70;1763344;81;20948;-66
2021/08/19 02:52:38;;;;;;;13.40;8.13;;;;;;;12.80;100.00;99117.19;1763232;79;21348;-67
2021/08/19 02:55:09;;;;;;;10.55;8.00;;;;;;;12.78;100.00;99114.52;1763283;79;20826;-68
2021/08/19 02:57:36;;;;;;;13.43;8.35;;;;;;;12.75;100.00;99113.19;1763335;79;20877;-68
2021/08/19 03:00:05;;;;;;;12.15;8.53;;;;;;;12.73;100.00;99112.66;1763155;79;21067;-70
2021/08/19 03:02:32;;;;;;;14.65;8.43;;;;;;;12.73;100.00;99124.77;1763315;79;20940;-68
2021/08/19 03:05:00;;;;;;;17.12;9.13;;;;;;;12.70;100.00;99123.19;1763444;79;20960;-68
2021/08/19 03:07:27;;;;;;;14.33;8.93;;;;;;;12.68;100.00;99126.70;1763406;81;20889;-68
2021/08/19 03:09:53;;;;;;;19.55;8.88;;;;;;;12.65;100.00;99133.44;1739834;81;21388;-67
2021/08/19 03:12:20;;;;;;;12.47;8.00;;;;;;;12.62;100.00;99139.39;1763437;80;21055;-67
2021/08/19 03:14:47;;;;;;;12.73;9.03;;;;;;;12.57;100.00;99141.56;1763149;79;21035;-67
2021/08/19 03:17:14;;;;;;;10.38;7.97;;;;;;;12.53;100.00;99144.53;1763408;79;20857;-67
2021/08/19 03:19:41;;;;;;;14.13;9.05;;;;;;;12.54;100.00;99147.51;1763188;79;21443;-67
2021/08/19 03:22:08;;;;;;;16.90;8.80;;;;;;;12.54;100.00;99149.38;1763820;80;20850;-67
2021/08/19 03:24:35;;;;;;;16.30;9.15;;;;;;;12.47;100.00;99149.69;1763321;79;21331;-67
2021/08/19 03:27:03;;;;;;;16.35;9.53;;;;;;;12.45;100.00;99151.84;1763173;79;20849;-68
2021/08/19 03:29:32;;;;;;;18.45;9.80;;;;;;;12.39;100.00;99148.89;1763418;79;20968;-68
2021/08/19 03:31:59;;;;;;;11.78;8.80;;;;;;;12.37;100.00;99159.12;1738414;81;21319;-68
2021/08/19 03:34:26;;;;;;;13.03;8.70;;;;;;;12.36;100.00;99159.67;1763597;79;20971;-68
2021/08/19 03:36:54;;;;;;;11.40;8.63;;;;;;;12.34;100.00;99156.99;1727201;80;21932;-68
2021/08/19 03:39:23;;;;;;;13.22;9.20;;;;;;;12.33;100.00;99159.43;1760357;78;20975;-68
2021/08/19 03:41:50;;;;;;;;;;;;;;;12.36;100.00;99161.02;1793536;78;20982;-68
2021/08/19 03:44:17;;;;;;;17.35;9.50;;;;;;;12.36;100.00;99158.88;1790961;78;20517;-69
2021/08/19 03:46:44;;;;;;;12.90;8.88;;;;;;;12.31;100.00;99151.62;1791070;80;20852;-69
2021/08/19 03:49:11;;;;;;;16.80;8.95;;;;;;;12.30;100.00;99152.72;1791135;78;21745;-68
2021/08/19 03:51:37;;;;;;;13.38;8.85;;;;;;;12.31;100.00;99161.04;1790566;78;20828;-68
2021/08/19 03:54:04;;;;;;;18.70;10.00;;;;;;;12.27;100.00;99155.93;1791061;78;20932;-69
2021/08/19 03:56:32;;;;;;;13.28;8.80;;;;;;;12.27;100.00;99161.86;1790963;78;21371;-68
2021/08/19 03:58:59;;;;;;;15.55;9.18;;;;;;;12.31;100.00;99165.63;1790950;78;20887;-68
2021/08/19 04:01:26;;;;;;;19.32;11.10;;;;;;;12.36;100.00;99175.02;1791064;79;21172;-67
2021/08/19 04:03:53;;;;;;;14.40;9.90;;;;;;;12.40;100.00;99177.44;1790987;78;21405;-68
2021/08/19 04:06:19;;;;;;;14.30;10.08;;;;;;;12.45;100.00;99174.73;1791148;78;20923;-67
2021/08/19 04:08:48;;;;;;;14.60;9.05;;;;;;;12.49;100.00;99174.97;1791002;78;20895;-67
2021/08/19 04:11:15;;;;;;;15.43;8.55;;;;;;;12.53;100.00;99182.77;1760889;80;20876;-67
2021/08/19 04:13:43;;;;;;;15.00;9.30;;;;;;;12.57;100.00;99183.84;1791220;78;20896;-67
2021/08/19 04:16:10;;;;;;;10.63;8.88;;;;;;;12.61;100.00;99185.67;1791069;78;20923;-66
2021/08/19 04:18:38;;;;;;;14.28;9.38;;;;;;;12.71;100.00;99186.17;1791317;78;20856;-67
2021/08/19 04:21:06;;;;;;;15.93;9.70;;;;;;;12.82;100.00;99189.64;1791060;78;20904;-67
2021/08/19 04:23:35;;;;;;;12.40;8.50;;;;;;;12.89;100.00;99188.00;1791056;79;20856;-67
2021/08/19 04:26:01;;;;;;;15.83;8.38;;;;;;;12.97;100.00;99192.24;1790823;78;20968;-67
2021/08/19 04:28:28;;;;;;;10.65;7.92;;;;;;;13.06;100.00;99198.66;1790948;78;20899;-67
2021/08/19 04:30:57;;;;;;;;;;;;;;;13.13;100.00;99201.05;1793757;78;20864;-67
2021/08/19 04:33:26;;;;;;;18.07;8.45;;;;;;;13.20;100.00;99197.48;1790889;78;20148;-67
2021/08/19 04:35:52;;;;;;;11.78;7.53;;;;;;;13.32;100.00;99191.78;1760451;78;20844;-67
2021/08/19 04:38:19;;;;;;;11.22;7.87;;;;;;;13.43;100.00;99182.55;1757984;80;21892;-67
2021/08/19 04:40:47;;;;;;;11.68;8.28;;;;;;;13.60;100.00;99178.65;1758177;80;20848;-69
2021/08/19 04:43:14;;;;;;;13.30;8.95;;;;;;;13.72;100.00;99173.69;1758065;80;20984;-68
2021/08/19 04:45:41;;;;;;;18.32;8.70;;;;;;;13.97;100.00;99174.53;1788629;79;20923;-68
2021/08/19 04:48:08;;;;;;;13.60;7.87;;;;;;;14.21;100.00;99175.36;1757855;78;20892;-68
2021/08/19 04:50:35;;;;;;;12.10;8.38;;;;;;;14.53;100.00;99177.96;1788212;79;21331;-69
2021/08/19 04:53:04;;;;;;;15.43;9.15;;;;;;;14.77;100.00;99172.53;1788558;79;24546;-68
2021/08/19 04:55:31;;;;;;;13.40;8.45;;;;;;;14.96;100.00;99176.61;1788629;79;26673;-68
2021/08/19 04:57:58;;;;;;;15.90;7.80;;;;;;;15.02;100.00;99193.02;1788801;79;21359;-67
2021/08/19 05:00:25;;;;;;;14.13;8.25;;;;;;;15.02;100.00;99193.02;1788515;78;21128;-67
2021/08/19 05:02:52;;;;;;;11.78;7.95;;;;;;;15.13;100.00;99191.77;1788526;80;21110;-67
2021/08/19 05:05:19;;;;;;;17.35;8.75;;;;;;;15.42;100.00;99190.80;1788577;78;20801;-67
2021/08/19 05:07:47;;;;;;;;;;;;;;;15.72;100.00;99183.31;1791082;79;20946;-68
2021/08/19 05:10:14;;;;;;;11.70;7.35;;;;;;;15.73;100.00;99180.88;1794378;79;20096;-67
2021/08/19 05:12:40;;;;;;;17.65;8.98;;;;;;;15.80;100.00;99182.62;1799529;79;20967;-66
2021/08/19 05:15:08;;;;;;;12.82;8.58;;;;;;;15.85;100.00;99181.21;1761571;80;21012;-67
2021/08/19 05:17:57;;;;;;;12.05;8.25;;;;;;;16.02;100.00;99181.97;1796399;78;20856;-67
2021/08/19 05:20:48;;;;;;;13.78;8.65;;;;;;;16.26;100.00;99186.66;1791013;78;21327;-68
2021/08/19 05:23:16;;;;;;;13.05;8.70;;;;;;;16.46;100.00;99181.94;1789441;78;20848;-68
2021/08/19 05:25:44;;;;;;;13.58;8.08;;;;;;;16.70;100.00;99192.01;1788253;78;20931;-68
2021/08/19 05:28:32;;;;;;;12.30;8.40;;;;;;;16.70;100.00;99195.28;1788564;79;21794;-69
2021/08/19 05:31:00;;;;;;;15.78;8.58;;;;;;;16.74;100.00;99194.13;1788018;78;20966;-68
2021/08/19 05:33:27;;;;;;;14.10;9.50;;;;;;;16.85;100.00;99192.27;1788536;79;20891;-68
2021/08/19 05:35:54;;;;;;;12.07;7.53;;;;;;;17.02;100.00;99190.27;1788740;78;20943;-68
2021/08/19 05:38:23;;;;;;;14.07;9.53;;;;;;;17.16;100.00;99197.59;1757629;80;20958;-68
2021/08/19 05:40:51;;;;;;;16.73;8.33;;;;;;;17.09;100.00;99202.06;1788571;79;21067;-68
2021/08/19 05:43:19;;;;;;;14.00;8.90;;;;;;;17.01;100.00;99196.02;1788314;79;20883;-69
2021/08/19 05:45:46;;;;;;;;;;;;;;;16.93;100.00;99200.27;1736343;80;20907;-69
2021/08/19 05:48:15;;;;;;;22.27;8.43;;;;;;;17.00;100.00;99187.09;1788612;79;20096;-69
2021/08/19 05:50:56;;;;;;;15.60;9.30;;;;;;;17.00;100.00;99197.11;1733491;78;20954;-69
2021/08/19 05:53:27;;;;;;;15.53;8.80;;;;;;;17.12;100.00;99192.78;1786030;78;21293;-68
2021/08/19 06:06:47;;;;;;;38.42;24.55;;;;;;;18.00;100.00;99212.64;1486199;95;21504;-68
2021/08/19 06:09:19;;;;;;;21.70;14.45;;;;;;;18.33;100.00;99207.47;1448388;98;21046;-68
2021/08/19 06:12:32;;;;;;;16.93;11.38;;;;;;;18.19;100.00;99204.28;1410389;100;21125;-68
2021/08/19 06:15:20;;;;;;;14.85;8.85;;;;;;;18.14;100.00;99209.85;1425254;100;21561;-68
2021/08/19 06:17:48;;;;;;;12.40;8.88;;;;;;;18.14;100.00;99209.85;1426969;100;21081;-67
2021/08/19 06:20:17;;;;;;;17.00;9.30;;;;;;;18.55;100.00;99207.39;1410303;100;21226;-67
2021/08/19 06:23:10;;;;;;;15.03;8.80;;;;;;;18.91;100.00;99202.29;1410675;100;21114;-67
2021/08/19 06:30:17;;;;;;;15.95;11.05;;;;;;;19.49;100.00;99202.97;1407223;99;21107;-68
2021/08/19 06:36:53;;;;;;;11.45;8.75;;;;;;;20.16;94.17;99208.37;1402280;100;21354;-67
2021/08/19 06:39:24;;;;;;;12.68;9.60;;;;;;;20.53;90.25;99220.44;1332215;107;21094;-67
2021/08/19 06:41:57;;;;;;;10.80;8.15;;;;;;;20.47;86.66;99216.84;1350826;104;21122;-67
2021/08/19 06:44:24;;;;;;;12.15;8.05;;;;;;;20.44;88.37;99216.94;1359021;105;21213;-67
2021/08/19 06:46:51;;;;;;;9.90;7.30;;;;;;;20.84;86.19;99222.05;1380836;101;21600;-68
2021/08/19 06:49:18;;;;;;;10.55;6.92;;;;;;;20.87;81.08;99229.59;1357285;102;21038;-67
2021/08/19 06:51:45;;;;;;;11.12;8.38;;;;;;;20.80;82.48;99220.31;1380404;102;21098;-70
2021/08/19 06:54:12;;;;;;;9.10;6.50;;;;;;;20.69;78.86;99226.72;1372300;102;21572;-67
2021/08/19 07:41:18;;;;;;;11.85;6.92;;;;;;;21.70;69.31;99217.66;1727126;80;89429;-71
2021/08/19 07:43:48;;;;;;;10.15;7.00;;;;;;;21.48;69.99;99215.52;1729138;81;21034;-69
2021/08/19 07:46:16;;;;;;;8.40;6.62;;;;;;;21.33;71.70;99212.00;1717448;82;21816;-71
2021/08/19 07:48:46;;;;;;;10.28;6.60;;;;;;;21.21;70.52;99208.64;1730482;81;21546;-68
2021/08/19 07:51:26;;;;;;;10.50;6.97;;;;;;;21.40;70.53;99206.84;1718915;81;20986;-70
2021/08/19 07:53:53;;;;;;;11.73;7.95;;;;;;;21.39;71.02;99208.78;1717847;82;21047;-71
2021/08/19 07:56:21;;;;;;;9.43;8.10;;;;;;;21.41;70.88;99209.79;1718412;82;21127;-70
2021/08/19 07:58:47;;;;;;;15.75;8.48;;;;;;;21.46;70.76;99206.88;1713396;82;25706;-73
2021/08/19 08:01:14;;;;;;;9.38;6.45;;;;;;;21.22;71.80;99199.91;1704541;84;20892;-72
2021/08/19 08:03:41;;;;;;;10.13;8.18;;;;;;;21.27;72.86;99203.80;1705046;84;20967;-72
2021/08/19 08:06:10;;;;;;;11.80;8.15;;;;;;;21.41;69.55;99202.96;1705483;82;21606;-73
2021/08/19 08:08:39;;;;;;;11.25;8.35;;;;;;;21.62;68.79;99200.22;1710170;82;21050;-70
2021/08/19 08:11:07;;;;;;;12.40;8.88;;;;;;;21.69;69.43;99201.05;1718140;82;21577;-71
2021/08/19 08:13:34;;;;;;;8.78;6.40;;;;;;;21.84;68.71;99205.87;1724923;82;20928;-71
2021/08/19 08:16:01;;;;;;;9.60;7.45;;;;;;;22.36;66.92;99209.40;1734411;82;21052;-71
2021/08/19 08:18:29;;;;;;;9.45;6.47;;;;;;;22.69;63.57;99210.67;1734599;82;20960;-71
2021/08/19 08:20:57;;;;;;;14.58;8.88;;;;;;;22.99;59.98;99209.06;1734516;82;21557;-68
2021/08/19 08:23:32;;;;;;;9.93;6.00;;;;;;;22.93;58.68;99213.70;1734514;82;20983;-74
2021/08/19 08:26:00;;;;;;;7.35;5.10;;;;;;;22.45;59.59;99210.09;1719291;82;21073;-70
2021/08/19 08:28:30;;;;;;;8.35;6.05;;;;;;;22.57;60.21;99210.67;1718735;82;20991;-72
2021/08/19 08:30:59;;;;;;;10.70;7.53;;;;;;;22.42;60.21;99212.16;1717251;81;21053;-68
2021/08/19 08:33:32;;;;;;;9.40;6.20;;;;;;;22.33;59.79;99215.55;1713109;82;21019;-71
2021/08/19 08:36:01;;;;;;;8.80;6.10;;;;;;;22.07;58.75;99213.08;1683032;84;21654;-70
2021/08/19 08:38:31;;;;;;;8.00;5.67;;;;;;;21.68;60.11;99215.27;1712525;82;21482;-68
2021/08/19 08:40:58;;;;;;;9.33;5.95;;;;;;;21.51;60.44;99216.23;1719638;81;21055;-71
2021/08/19 08:43:25;;;;;;;8.85;5.92;;;;;;;21.76;58.32;99213.59;1714034;82;21047;-67
2021/08/19 08:45:54;;;;;;;9.58;5.97;;;;;;;21.76;58.32;99213.59;1716722;81;21044;-68
2021/08/19 08:48:24;;;;;;;8.63;6.40;;;;;;;21.93;58.79;99210.68;1695604;82;21844;-69
2021/08/19 08:50:53;;;;;;;10.35;6.95;;;;;;;22.04;58.53;99211.03;1695264;83;21005;-70
2021/08/19 08:53:22;;;;;;;8.90;5.75;;;;;;;22.18;57.72;99208.79;1695134;84;20925;-70
2021/08/19 08:55:49;;;;;;;9.95;6.60;;;;;;;22.63;58.09;99205.77;1695378;84;20996;-69
2021/08/19 08:58:17;;;;;;;10.30;6.15;;;;;;;22.96;56.50;99208.94;1695129;83;21001;-69
2021/08/19 09:00:46;;;;;;;10.48;5.87;;;;;;;23.12;53.67;99207.09;1695396;84;21160;-69
2021/08/19 09:03:14;;;;;;;13.68;7.08;;;;;;;23.00;56.03;99205.17;1695274;84;20944;-70
2021/08/19 09:05:51;;;;;;;9.95;6.78;;;;;;;23.08;55.48;99208.95;1695234;84;21497;-71
2021/08/19 09:08:25;;;;;;;7.65;6.05;;;;;;;23.55;54.49;99209.70;1695286;84;20917;-70
2021/08/19 09:10:57;;;;;;;9.20;5.83;;;;;;;23.61;51.82;99206.92;1695259;83;21037;-71
2021/08/19 09:13:29;;;;;;;8.33;6.62;;;;;;;23.35;54.11;99207.39;1695322;84;21165;-70
2021/08/19 09:16:17;;;;;;;11.48;6.55;;;;;;;23.12;54.89;99211.20;1695106;84;21051;-69
2021/08/19 09:18:44;;;;;;;8.87;6.10;;;;;;;23.28;55.38;99205.81;1688966;83;20988;-68
2021/08/19 09:21:24;;;;;;;11.70;6.53;;;;;;;23.56;54.40;99207.75;1695373;84;20997;-70
2021/08/19 09:24:18;;;;;;;10.13;6.08;;;;;;;23.85;53.27;99197.03;1694562;84;21119;-71
2021/08/19 09:26:46;;;;;;;11.30;6.95;;;;;;;24.20;55.68;99199.88;1694702;84;21536;-71
2021/08/19 09:29:25;;;;;;;8.08;6.12;;;;;;;23.27;54.07;99198.17;1716697;81;21059;-72
2021/08/19 09:32:15;;;;;;;11.15;6.22;;;;;;;22.82;56.40;99195.03;1744252;81;20952;-72
2021/08/19 09:34:46;;;;;;;13.25;6.67;;;;;;;22.62;58.60;99198.13;1760234;81;21015;-70
2021/08/19 09:37:17;;;;;;;9.98;7.28;;;;;;;22.72;57.34;99194.72;1755690;80;21031;-70
2021/08/19 09:39:47;;;;;;;10.30;7.10;;;;;;;22.98;56.83;99191.06;1705539;84;21192;-69
2021/08/19 09:42:14;;;;;;;9.75;6.45;;;;;;;23.47;56.39;99181.88;1718891;83;21346;-71
2021/08/19 09:44:47;;;;;;;10.72;7.03;;;;;;;23.72;53.42;99174.36;1754422;80;21003;-70
2021/08/19 09:47:34;;;;;;;10.53;7.17;;;;;;;23.06;54.62;99180.54;1781926;80;21047;-69
2021/08/19 09:50:17;;;;;;;9.85;7.42;;;;;;;22.86;56.41;99182.84;1781861;79;21004;-70
2021/08/19 09:52:47;;;;;;;9.85;6.42;;;;;;;23.06;56.61;99174.27;1781973;80;21250;-69
2021/08/19 09:55:29;;;;;;;9.85;6.33;;;;;;;23.57;52.21;99171.80;1765980;80;21125;-69
2021/08/19 09:57:59;;;;;;;8.58;6.35;;;;;;;23.74;51.02;99178.37;1736720;82;20896;-69
2021/08/19 10:00:37;;;;;;;11.00;6.97;;;;;;;23.77;51.67;99165.91;1713038;82;21034;-67
2021/08/19 10:03:02;;;;;;;15.80;10.03;;;;;;;23.90;51.66;99164.67;1752041;81;21432;-70
2021/08/19 10:05:29;;;;;;;14.60;10.28;;;;;;;23.23;54.33;99163.62;1751231;82;21162;-71
2021/08/19 10:07:58;;;;;;;15.53;7.55;;;;;;;22.50;57.72;99167.27;1751009;81;20983;-71
2021/08/19 10:10:29;;;;;;;11.95;6.40;;;;;;;22.52;56.96;99166.36;1751270;82;21713;-70
2021/08/19 10:12:58;;;;;;;8.58;6.55;;;;;;;22.89;52.94;99173.36;1712310;83;21010;-72
2021/08/19 10:15:26;;;;;;;9.45;7.08;;;;;;;23.63;53.18;99167.65;1751447;81;21097;-71
2021/08/19 10:17:57;;;;;;;11.25;6.50;;;;;;;23.99;52.50;99163.14;1757543;80;21134;-71
2021/08/19 10:20:36;;;;;;;9.25;6.53;;;;;;;23.60;52.16;99166.20;1750084;80;21057;-72
2021/08/19 10:23:02;;;;;;;9.58;6.90;;;;;;;22.77;52.78;99168.48;1712383;83;21003;-70
2021/08/19 10:25:31;;;;;;;15.60;10.18;;;;;;;22.37;54.89;99174.10;1750886;82;21101;-71
2021/08/19 10:28:20;;;;;;;8.15;6.47;;;;;;;22.94;57.61;99172.91;1751049;82;21035;-72
2021/08/19 10:30:55;;;;;;;10.43;6.47;;;;;;;23.70;50.88;99163.73;1751156;82;21109;-71
2021/08/19 10:33:42;;;;;;;11.08;6.45;;;;;;;24.04;49.81;99169.73;1750571;82;21582;-70
2021/08/19 10:36:17;;;;;;;8.63;5.87;;;;;;;24.56;46.83;99174.14;1751134;82;21007;-73
2021/08/19 10:38:45;;;;;;;8.85;5.75;;;;;;;24.67;45.03;99174.41;1754435;80;21059;-70
2021/08/19 10:41:37;;;;;;;8.45;5.47;;;;;;;24.43;45.85;99167.73;1744943;81;21008;-72
2021/08/19 10:44:07;;;;;;;7.85;5.78;;;;;;;24.26;43.83;99174.38;1685043;84;21358;-73
2021/08/19 10:46:47;;;;;;;9.73;6.05;;;;;;;24.29;45.33;99159.95;1653696;86;20940;-70
2021/08/19 10:49:34;;;;;;;8.05;5.15;;;;;;;24.37;45.96;99165.23;1654321;86;21051;-71
2021/08/19 10:52:15;;;;;;;7.85;5.35;;;;;;;24.44;46.03;99172.06;1685531;84;21134;-69
2021/08/19 10:54:47;;;;;;;11.63;8.68;;;;;;;23.54;49.31;99160.98;1684410;84;21089;-68
2021/08/19 10:57:34;;;;;;;13.32;8.25;;;;;;;22.93;50.70;99160.34;1653389;84;21083;-70
2021/08/19 11:00:09;;;;;;;15.20;8.83;;;;;;;22.53;52.82;99166.57;1653263;85;21081;-71
2021/08/19 11:02:41;;;;;;;10.15;6.50;;;;;;;22.45;53.40;99164.97;1669252;84;21154;-70
2021/08/19 11:05:14;;;;;;;9.35;6.58;;;;;;;22.78;52.97;99171.44;1672543;84;21543;-73
2021/08/19 11:07:46;;;;;;;9.20;5.80;;;;;;;23.65;49.72;99159.88;1668816;84;21083;-72
2021/08/19 11:10:36;;;;;;;7.67;5.62;;;;;;;24.34;46.05;99158.31;1639991;87;21117;-72
2021/08/19 11:13:09;;;;;;;9.85;6.05;;;;;;;24.75;44.06;99163.02;1639616;86;21072;-72
2021/08/19 11:15:49;;;;;;;10.32;6.00;;;;;;;24.81;46.01;99156.08;1641399;85;21075;-70
2021/08/19 11:18:25;;;;;;;8.90;5.80;;;;;;;24.80;44.42;99158.61;1676827;84;21107;-73
2021/08/19 11:20:55;;;;;;;12.18;6.10;;;;;;;24.69;44.57;99156.98;1698201;84;21039;-72
2021/08/19 11:23:36;;;;;;;6.28;5.33;;;;;;;24.93;44.52;99151.04;1700469;84;21204;-70
2021/08/19 11:26:16;;;;;;;10.43;5.22;;;;;;;25.09;42.39;99155.12;1700949;83;20968;-73
2021/08/19 11:28:49;;;;;;;6.03;5.17;;;;;;;25.51;41.35;99158.53;1682054;84;21065;-72
2021/08/19 11:31:24;;;;;;;7.90;5.62;;;;;;;25.31;42.43;99164.03;1701229;84;21042;-73
2021/08/19 11:34:02;;;;;;;11.03;5.90;;;;;;;24.65;43.60;99159.45;1701587;82;20988;-72
2021/08/19 11:36:31;;;;;;;6.00;4.83;;;;;;;24.15;46.13;99157.65;1726950;83;22438;-70
2021/08/19 11:39:06;;;;;;;7.37;5.28;;;;;;;23.84;47.00;99147.49;1728203;83;20976;-71
2021/08/19 11:41:34;;;;;;;6.80;5.35;;;;;;;23.73;46.67;99142.50;1730992;81;21531;-69
2021/08/19 11:44:05;;;;;;;14.40;11.83;;;;;;;23.85;45.86;99141.64;1736674;82;20920;-73
2021/08/19 11:46:33;;;;;;;7.60;5.35;;;;;;;23.71;46.89;99142.61;1737393;82;20919;-73
2021/08/19 11:49:13;;;;;;;8.60;5.70;;;;;;;23.23;47.41;99143.88;1737417;82;21066;-72
2021/08/19 11:51:42;;;;;;;6.80;5.42;;;;;;;22.93;48.79;99136.54;1737189;82;20921;-71
2021/08/19 11:54:14;;;;;;;11.68;5.15;;;;;;;22.62;51.45;99128.96;1737834;82;20957;-72
2021/08/19 11:56:49;;;;;;;6.53;5.22;;;;;;;22.64;50.10;99127.48;1737268;80;20980;-72
2021/08/19 11:59:21;;;;;;;6.90;5.20;;;;;;;22.81;48.06;99121.52;1722494;81;21002;-75
2021/08/19 12:01:58;;;;;;;8.93;5.17;;;;;;;23.20;48.54;99128.70;1695189;84;20968;-73
2021/08/19 12:04:39;;;;;;;15.65;4.87;;;;;;;23.44;45.93;99131.91;1681674;85;21334;-72
2021/08/19 12:07:08;;;;;;;7.60;4.80;;;;;;;23.21;47.33;99137.16;1694640;84;20937;-71
2021/08/19 12:09:38;;;;;;;6.78;5.22;;;;;;;23.53;45.53;99139.41;1726546;81;20932;-72
2021/08/19 12:12:05;;;;;;;6.55;4.67;;;;;;;23.61;45.78;99135.70;1691487;82;26967;-70
2021/08/19 12:14:34;;;;;;;7.42;4.85;;;;;;;23.41;47.22;99130.67;1737656;82;21450;-70
2021/08/19 12:17:09;;;;;;;6.83;5.47;;;;;;;23.39;47.55;99128.05;1737404;82;21384;-71
2021/08/19 12:19:36;;;;;;;7.58;5.80;;;;;;;23.60;48.51;99127.27;1737645;82;21558;-71
2021/08/19 12:22:06;;;;;;;10.05;4.65;;;;;;;23.65;47.46;99124.84;1715193;81;20932;-70
2021/08/19 12:24:39;;;;;;;14.75;11.75;;;;;;;23.73;49.30;99117.84;1691878;82;21074;-72
2021/08/19 12:27:15;;;;;;;8.35;5.87;;;;;;;23.87;47.96;99123.48;1737581;81;20958;-70
2021/08/19 12:29:54;;;;;;;15.78;8.38;;;;;;;23.98;47.73;99122.38;1737195;82;20948;-73
2021/08/19 12:32:34;;;;;;;8.73;7.42;;;;;;;24.08;49.43;99113.06;1736989;82;21728;-73
2021/08/19 12:35:13;;;;;;;8.80;6.15;;;;;;;24.44;46.05;99115.25;1736782;82;21090;-71
2021/08/19 12:38:01;;;;;;;7.67;5.42;;;;;;;24.40;45.23;99115.77;1737817;82;20901;-72
2021/08/19 12:40:32;;;;;;;7.33;5.23;;;;;;;24.23;47.26;99114.74;1737940;82;21239;-70
2021/08/19 12:43:12;;;;;;;9.68;5.30;;;;;;;24.39;45.71;99112.78;1735663;82;20999;-71
2021/08/19 12:45:45;;;;;;;8.00;5.42;;;;;;;24.25;46.38;99115.19;1735129;81;21015;-71